Grandin Road, Virginia
Current Conditions -  °F | °C
As of 6:54 PM on Monday 24 Nov 2014 (Local Time) from KROA Reporting Station
Clear Clear  
Wind Chill: 63°   Ceiling: Unl
Heat Index: 63°   Visibility: 10mi
Dew Point: 51°   Wind: 7mph
Humidity: 65%   Direction: 200°SSW
Pressure: 29.79"   Gusts: NA
Location:  37.2556°N, 79.9796°W
Report Text: KROA 242354Z 20006KT 10SM CLR 17/11 A2979 RMK AO2 SLP083 T01720106 10217 20172 51029
Loading
Personal Weather Stations






























Interactive Weather Map New forecast layout! Learn more

10-Day Weather Forecast

Advertisements
Track Severe Weather on mobile